Sand Creek, Michigan
Current Conditions -  °F | °C
As of 2:53 PM on Sunday 21 Dec 2014 (Local Time) from KADG Reporting Station
Haze Haze  
Wind Chill: 28°   Ceiling: 1600
Heat Index: 33°   Visibility: 6mi
Dew Point: 27°   Wind: 6mph
Humidity: 78%   Direction: 190°S
Pressure: 30.22"   Gusts: NA
Location:  41.83°N, 84.1°W
Report Text: KADG 211953Z AUTO 19005KT 6SM HZ OVC016 01/M03 A3022 RMK AO2 SLP246 T00061028 $
Loading
Personal Weather Stations






























Interactive Weather Map New forecast layout! Learn more

10-Day Weather Forecast

Advertisements
Track Severe Weather on mobile